sensor_id;sensor_type;location;lat;lon;timestamp;P1;durP1;ratioP1;P2;durP2;ratioP2
69323;SDS011;56470;47.350;8.718;2023-08-20T00:01:22;12.50;;;5.90;;
69323;SDS011;56470;47.350;8.718;2023-08-20T00:03:51;7.82;;;5.18;;
69323;SDS011;56470;47.350;8.718;2023-08-20T00:06:17;9.73;;;5.63;;
69323;SDS011;56470;47.350;8.718;2023-08-20T00:08:42;8.90;;;5.07;;
69323;SDS011;56470;47.350;8.718;2023-08-20T00:11:08;8.97;;;5.23;;
69323;SDS011;56470;47.350;8.718;2023-08-20T00:13:34;8.63;;;5.60;;
69323;SDS011;56470;47.350;8.718;2023-08-20T00:16:00;7.87;;;5.60;;
69323;SDS011;56470;47.350;8.718;2023-08-20T00:18:25;8.63;;;5.20;;
69323;SDS011;56470;47.350;8.718;2023-08-20T00:20:51;12.50;;;5.70;;
69323;SDS011;56470;47.350;8.718;2023-08-20T00:23:18;9.45;;;5.72;;
69323;SDS011;56470;47.350;8.718;2023-08-20T00:25:43;8.67;;;5.50;;
69323;SDS011;56470;47.350;8.718;2023-08-20T00:28:09;11.65;;;6.30;;
69323;SDS011;56470;47.350;8.718;2023-08-20T00:30:35;9.70;;;5.60;;
69323;SDS011;56470;47.350;8.718;2023-08-20T00:33:00;8.63;;;6.00;;
69323;SDS011;56470;47.350;8.718;2023-08-20T00:35:25;10.35;;;5.97;;
69323;SDS011;56470;47.350;8.718;2023-08-20T00:37:51;7.93;;;5.70;;
69323;SDS011;56470;47.350;8.718;2023-08-20T00:40:16;10.57;;;5.50;;
69323;SDS011;56470;47.350;8.718;2023-08-20T00:42:42;10.80;;;5.37;;
69323;SDS011;56470;47.350;8.718;2023-08-20T00:45:07;9.27;;;5.20;;
69323;SDS011;56470;47.350;8.718;2023-08-20T00:47:33;11.47;;;5.20;;
69323;SDS011;56470;47.350;8.718;2023-08-20T00:50:00;10.95;;;6.45;;
69323;SDS011;56470;47.350;8.718;2023-08-20T00:52:26;8.48;;;5.78;;
69323;SDS011;56470;47.350;8.718;2023-08-20T00:54:51;8.33;;;5.70;;
69323;SDS011;56470;47.350;8.718;2023-08-20T00:57:18;9.00;;;5.15;;
69323;SDS011;56470;47.350;8.718;2023-08-20T00:59:44;9.63;;;5.38;;
69323;SDS011;56470;47.350;8.718;2023-08-20T01:02:14;8.25;;;5.55;;
69323;SDS011;56470;47.350;8.718;2023-08-20T01:04:40;9.07;;;6.30;;
69323;SDS011;56470;47.350;8.718;2023-08-20T01:10:04;12.43;;;5.75;;
69323;SDS011;56470;47.350;8.718;2023-08-20T01:12:38;9.90;;;5.43;;
69323;SDS011;56470;47.350;8.718;2023-08-20T01:15:04;8.10;;;5.65;;
69323;SDS011;56470;47.350;8.718;2023-08-20T01:17:29;10.27;;;5.40;;
69323;SDS011;56470;47.350;8.718;2023-08-20T01:19:56;9.70;;;5.53;;
69323;SDS011;56470;47.350;8.718;2023-08-20T01:22:27;11.27;;;5.50;;
69323;SDS011;56470;47.350;8.718;2023-08-20T01:30:54;9.30;;;5.88;;
69323;SDS011;56470;47.350;8.718;2023-08-20T01:33:21;12.75;;;6.15;;
69323;SDS011;56470;47.350;8.718;2023-08-20T01:35:49;10.13;;;5.73;;
69323;SDS011;56470;47.350;8.718;2023-08-20T01:38:15;8.32;;;5.93;;
69323;SDS011;56470;47.350;8.718;2023-08-20T01:40:40;12.73;;;6.17;;
69323;SDS011;56470;47.350;8.718;2023-08-20T01:43:05;9.77;;;5.25;;
69323;SDS011;56470;47.350;8.718;2023-08-20T01:45:32;10.10;;;5.97;;
69323;SDS011;56470;47.350;8.718;2023-08-20T01:47:57;11.45;;;6.05;;
69323;SDS011;56470;47.350;8.718;2023-08-20T01:50:22;12.13;;;6.23;;
69323;SDS011;56470;47.350;8.718;2023-08-20T01:52:47;11.40;;;5.40;;
69323;SDS011;56470;47.350;8.718;2023-08-20T01:55:13;10.73;;;5.43;;
69323;SDS011;56470;47.350;8.718;2023-08-20T01:57:39;13.05;;;5.72;;
69323;SDS011;56470;47.350;8.718;2023-08-20T02:00:04;11.17;;;5.97;;
69323;SDS011;56470;47.350;8.718;2023-08-20T02:02:31;9.75;;;5.55;;
69323;SDS011;56470;47.350;8.718;2023-08-20T02:04:56;9.03;;;6.17;;
69323;SDS011;56470;47.350;8.718;2023-08-20T02:07:22;10.15;;;5.90;;
69323;SDS011;56470;47.350;8.718;2023-08-20T02:09:47;10.77;;;5.77;;
69323;SDS011;56470;47.350;8.718;2023-08-20T02:12:13;12.43;;;6.03;;
69323;SDS011;56470;47.350;8.718;2023-08-20T02:14:39;10.00;;;5.77;;
69323;SDS011;56470;47.350;8.718;2023-08-20T02:17:04;9.10;;;5.93;;
69323;SDS011;56470;47.350;8.718;2023-08-20T02:19:30;8.68;;;6.53;;
69323;SDS011;56470;47.350;8.718;2023-08-20T02:21:55;11.10;;;4.93;;
69323;SDS011;56470;47.350;8.718;2023-08-20T02:24:20;8.23;;;5.73;;
69323;SDS011;56470;47.350;8.718;2023-08-20T02:26:46;8.80;;;5.10;;
69323;SDS011;56470;47.350;8.718;2023-08-20T02:29:11;9.53;;;6.47;;
69323;SDS011;56470;47.350;8.718;2023-08-20T02:31:36;10.53;;;5.50;;
69323;SDS011;56470;47.350;8.718;2023-08-20T02:34:02;12.93;;;5.80;;
69323;SDS011;56470;47.350;8.718;2023-08-20T02:36:28;10.17;;;6.90;;
69323;SDS011;56470;47.350;8.718;2023-08-20T02:38:53;11.57;;;6.10;;
69323;SDS011;56470;47.350;8.718;2023-08-20T02:41:18;10.43;;;5.28;;
69323;SDS011;56470;47.350;8.718;2023-08-20T02:43:44;10.67;;;5.97;;
69323;SDS011;56470;47.350;8.718;2023-08-20T02:46:10;7.55;;;5.60;;
69323;SDS011;56470;47.350;8.718;2023-08-20T02:48:35;10.10;;;5.93;;
69323;SDS011;56470;47.350;8.718;2023-08-20T02:51:01;7.00;;;4.87;;
69323;SDS011;56470;47.350;8.718;2023-08-20T02:53:27;9.35;;;6.00;;
69323;SDS011;56470;47.350;8.718;2023-08-20T02:55:52;8.07;;;5.53;;
69323;SDS011;56470;47.350;8.718;2023-08-20T02:58:18;10.30;;;5.83;;
69323;SDS011;56470;47.350;8.718;2023-08-20T03:00:43;10.07;;;5.93;;
69323;SDS011;56470;47.350;8.718;2023-08-20T03:03:10;10.93;;;5.77;;
69323;SDS011;56470;47.350;8.718;2023-08-20T03:05:35;10.48;;;5.80;;
69323;SDS011;56470;47.350;8.718;2023-08-20T03:08:01;9.10;;;5.60;;
69323;SDS011;56470;47.350;8.718;2023-08-20T03:10:28;12.57;;;5.68;;
69323;SDS011;56470;47.350;8.718;2023-08-20T03:12:54;9.40;;;5.60;;
69323;SDS011;56470;47.350;8.718;2023-08-20T03:15:19;8.97;;;5.50;;
69323;SDS011;56470;47.350;8.718;2023-08-20T03:17:45;8.97;;;5.10;;
69323;SDS011;56470;47.350;8.718;2023-08-20T03:20:10;8.77;;;5.97;;
69323;SDS011;56470;47.350;8.718;2023-08-20T03:22:36;11.60;;;5.25;;
69323;SDS011;56470;47.350;8.718;2023-08-20T03:25:02;9.23;;;5.50;;
69323;SDS011;56470;47.350;8.718;2023-08-20T03:27:28;9.93;;;5.93;;
69323;SDS011;56470;47.350;8.718;2023-08-20T03:29:53;7.50;;;5.05;;
69323;SDS011;56470;47.350;8.718;2023-08-20T03:32:19;9.20;;;5.63;;
69323;SDS011;56470;47.350;8.718;2023-08-20T03:34:44;10.10;;;5.93;;
69323;SDS011;56470;47.350;8.718;2023-08-20T03:37:09;8.00;;;5.60;;
69323;SDS011;56470;47.350;8.718;2023-08-20T03:39:35;9.37;;;5.80;;
69323;SDS011;56470;47.350;8.718;2023-08-20T03:42:00;9.57;;;5.77;;
69323;SDS011;56470;47.350;8.718;2023-08-20T03:44:25;10.23;;;5.73;;
69323;SDS011;56470;47.350;8.718;2023-08-20T03:46:51;8.95;;;5.80;;
69323;SDS011;56470;47.350;8.718;2023-08-20T03:49:16;8.00;;;5.57;;
69323;SDS011;56470;47.350;8.718;2023-08-20T03:51:42;8.17;;;5.73;;
69323;SDS011;56470;47.350;8.718;2023-08-20T03:54:07;7.22;;;5.53;;
69323;SDS011;56470;47.350;8.718;2023-08-20T03:56:35;9.07;;;5.53;;
69323;SDS011;56470;47.350;8.718;2023-08-20T03:59:01;10.90;;;4.80;;
69323;SDS011;56470;47.350;8.718;2023-08-20T04:01:26;9.75;;;5.50;;
69323;SDS011;56470;47.350;8.718;2023-08-20T04:03:52;10.00;;;5.80;;
69323;SDS011;56470;47.350;8.718;2023-08-20T04:06:17;8.33;;;5.77;;
69323;SDS011;56470;47.350;8.718;2023-08-20T04:08:42;9.05;;;5.47;;
69323;SDS011;56470;47.350;8.718;2023-08-20T04:11:08;10.47;;;5.53;;
69323;SDS011;56470;47.350;8.718;2023-08-20T04:13:34;9.33;;;5.30;;
69323;SDS011;56470;47.350;8.718;2023-08-20T04:15:59;9.98;;;5.00;;
69323;SDS011;56470;47.350;8.718;2023-08-20T04:18:24;8.63;;;5.77;;
69323;SDS011;56470;47.350;8.718;2023-08-20T04:20:51;9.47;;;6.20;;
69323;SDS011;56470;47.350;8.718;2023-08-20T04:23:17;7.93;;;5.30;;
69323;SDS011;56470;47.350;8.718;2023-08-20T04:25:43;8.70;;;5.78;;
69323;SDS011;56470;47.350;8.718;2023-08-20T04:28:09;10.23;;;5.70;;
69323;SDS011;56470;47.350;8.718;2023-08-20T04:30:35;8.25;;;5.47;;
69323;SDS011;56470;47.350;8.718;2023-08-20T04:33:01;10.80;;;5.73;;
69323;SDS011;56470;47.350;8.718;2023-08-20T04:35:26;11.88;;;6.32;;
69323;SDS011;56470;47.350;8.718;2023-08-20T04:37:51;11.47;;;6.20;;
69323;SDS011;56470;47.350;8.718;2023-08-20T04:40:17;12.53;;;5.77;;
69323;SDS011;56470;47.350;8.718;2023-08-20T04:42:42;8.90;;;6.20;;
69323;SDS011;56470;47.350;8.718;2023-08-20T04:45:08;9.47;;;5.70;;
69323;SDS011;56470;47.350;8.718;2023-08-20T04:47:33;9.38;;;5.60;;
69323;SDS011;56470;47.350;8.718;2023-08-20T04:49:59;9.23;;;5.43;;
69323;SDS011;56470;47.350;8.718;2023-08-20T04:52:24;9.33;;;5.37;;
69323;SDS011;56470;47.350;8.718;2023-08-20T04:54:49;8.63;;;5.57;;
69323;SDS011;56470;47.350;8.718;2023-08-20T04:57:15;11.00;;;5.27;;
69323;SDS011;56470;47.350;8.718;2023-08-20T04:59:41;8.05;;;4.88;;
69323;SDS011;56470;47.350;8.718;2023-08-20T05:02:10;10.48;;;5.00;;
69323;SDS011;56470;47.350;8.718;2023-08-20T05:04:35;12.13;;;5.20;;
69323;SDS011;56470;47.350;8.718;2023-08-20T05:07:01;9.50;;;5.97;;
69323;SDS011;56470;47.350;8.718;2023-08-20T05:09:26;8.80;;;5.13;;
69323;SDS011;56470;47.350;8.718;2023-08-20T05:11:52;10.25;;;5.63;;
69323;SDS011;56470;47.350;8.718;2023-08-20T05:14:17;9.30;;;5.97;;
69323;SDS011;56470;47.350;8.718;2023-08-20T05:16:42;10.30;;;5.60;;
69323;SDS011;56470;47.350;8.718;2023-08-20T05:19:08;9.97;;;5.23;;
69323;SDS011;56470;47.350;8.718;2023-08-20T05:21:33;9.23;;;5.63;;
69323;SDS011;56470;47.350;8.718;2023-08-20T05:23:58;13.03;;;6.17;;
69323;SDS011;56470;47.350;8.718;2023-08-20T05:26:23;9.63;;;5.70;;
69323;SDS011;56470;47.350;8.718;2023-08-20T05:28:49;11.63;;;5.77;;
69323;SDS011;56470;47.350;8.718;2023-08-20T05:31:14;9.87;;;5.77;;
69323;SDS011;56470;47.350;8.718;2023-08-20T05:33:39;8.67;;;6.17;;
69323;SDS011;56470;47.350;8.718;2023-08-20T05:36:05;10.15;;;5.80;;
69323;SDS011;56470;47.350;8.718;2023-08-20T05:38:30;10.20;;;6.40;;
69323;SDS011;56470;47.350;8.718;2023-08-20T05:40:55;10.27;;;6.80;;
69323;SDS011;56470;47.350;8.718;2023-08-20T05:43:21;10.70;;;5.77;;
69323;SDS011;56470;47.350;8.718;2023-08-20T05:45:46;11.03;;;5.80;;
69323;SDS011;56470;47.350;8.718;2023-08-20T05:48:11;10.10;;;6.30;;
69323;SDS011;56470;47.350;8.718;2023-08-20T05:50:36;9.37;;;5.60;;
69323;SDS011;56470;47.350;8.718;2023-08-20T05:53:02;8.57;;;5.60;;
69323;SDS011;56470;47.350;8.718;2023-08-20T05:55:27;8.50;;;5.70;;
69323;SDS011;56470;47.350;8.718;2023-08-20T05:57:52;10.77;;;5.93;;
69323;SDS011;56470;47.350;8.718;2023-08-20T06:00:18;8.50;;;5.93;;
69323;SDS011;56470;47.350;8.718;2023-08-20T06:02:43;10.63;;;5.93;;
69323;SDS011;56470;47.350;8.718;2023-08-20T06:05:09;9.63;;;5.63;;
69323;SDS011;56470;47.350;8.718;2023-08-20T06:07:34;10.10;;;6.00;;
69323;SDS011;56470;47.350;8.718;2023-08-20T06:10:00;9.43;;;5.87;;
69323;SDS011;56470;47.350;8.718;2023-08-20T06:12:25;10.02;;;5.85;;
69323;SDS011;56470;47.350;8.718;2023-08-20T06:14:50;7.90;;;4.60;;
69323;SDS011;56470;47.350;8.718;2023-08-20T06:17:16;10.03;;;4.97;;
69323;SDS011;56470;47.350;8.718;2023-08-20T06:19:41;10.20;;;5.20;;
69323;SDS011;56470;47.350;8.718;2023-08-20T06:22:07;7.78;;;5.15;;
69323;SDS011;56470;47.350;8.718;2023-08-20T06:24:32;7.57;;;5.10;;
69323;SDS011;56470;47.350;8.718;2023-08-20T06:26:58;7.20;;;5.17;;
69323;SDS011;56470;47.350;8.718;2023-08-20T06:29:23;8.63;;;4.73;;
69323;SDS011;56470;47.350;8.718;2023-08-20T06:31:48;9.50;;;5.00;;
69323;SDS011;56470;47.350;8.718;2023-08-20T06:34:14;9.82;;;5.03;;
69323;SDS011;56470;47.350;8.718;2023-08-20T06:36:39;9.30;;;4.10;;
69323;SDS011;56470;47.350;8.718;2023-08-20T06:39:08;8.23;;;5.17;;
69323;SDS011;56470;47.350;8.718;2023-08-20T06:41:45;9.75;;;5.85;;
69323;SDS011;56470;47.350;8.718;2023-08-20T06:44:15;7.13;;;4.80;;
69323;SDS011;56470;47.350;8.718;2023-08-20T06:46:41;10.35;;;5.05;;
69323;SDS011;56470;47.350;8.718;2023-08-20T06:49:06;10.00;;;5.03;;
69323;SDS011;56470;47.350;8.718;2023-08-20T06:51:32;9.10;;;5.10;;
69323;SDS011;56470;47.350;8.718;2023-08-20T06:53:57;9.23;;;4.45;;
69323;SDS011;56470;47.350;8.718;2023-08-20T06:56:23;9.50;;;5.53;;
69323;SDS011;56470;47.350;8.718;2023-08-20T06:58:48;10.43;;;4.93;;
69323;SDS011;56470;47.350;8.718;2023-08-20T07:01:13;10.23;;;5.25;;
69323;SDS011;56470;47.350;8.718;2023-08-20T07:03:42;7.53;;;4.87;;
69323;SDS011;56470;47.350;8.718;2023-08-20T07:06:09;9.40;;;4.38;;
69323;SDS011;56470;47.350;8.718;2023-08-20T07:08:36;12.52;;;4.82;;
69323;SDS011;56470;47.350;8.718;2023-08-20T07:11:04;7.32;;;4.10;;
69323;SDS011;56470;47.350;8.718;2023-08-20T07:13:30;8.23;;;4.50;;
69323;SDS011;56470;47.350;8.718;2023-08-20T07:15:58;7.72;;;4.43;;
69323;SDS011;56470;47.350;8.718;2023-08-20T07:18:24;9.02;;;4.88;;
69323;SDS011;56470;47.350;8.718;2023-08-20T07:20:54;8.50;;;5.00;;
69323;SDS011;56470;47.350;8.718;2023-08-20T07:23:28;8.13;;;5.15;;
69323;SDS011;56470;47.350;8.718;2023-08-20T07:26:09;7.78;;;4.88;;
69323;SDS011;56470;47.350;8.718;2023-08-20T07:28:37;9.50;;;5.28;;
69323;SDS011;56470;47.350;8.718;2023-08-20T07:31:21;9.40;;;4.73;;
69323;SDS011;56470;47.350;8.718;2023-08-20T07:33:47;7.68;;;4.35;;
69323;SDS011;56470;47.350;8.718;2023-08-20T07:36:14;8.45;;;5.78;;
69323;SDS011;56470;47.350;8.718;2023-08-20T07:38:40;8.20;;;4.50;;
69323;SDS011;56470;47.350;8.718;2023-08-20T07:41:07;8.10;;;4.80;;
69323;SDS011;56470;47.350;8.718;2023-08-20T07:43:33;10.97;;;5.17;;
69323;SDS011;56470;47.350;8.718;2023-08-20T07:45:58;7.60;;;4.70;;
69323;SDS011;56470;47.350;8.718;2023-08-20T07:48:23;7.87;;;4.57;;
69323;SDS011;56470;47.350;8.718;2023-08-20T07:50:49;8.57;;;4.40;;
69323;SDS011;56470;47.350;8.718;2023-08-20T07:53:14;7.83;;;5.17;;
69323;SDS011;56470;47.350;8.718;2023-08-20T07:55:40;9.70;;;5.53;;
69323;SDS011;56470;47.350;8.718;2023-08-20T07:58:05;8.43;;;5.07;;
69323;SDS011;56470;47.350;8.718;2023-08-20T08:00:30;10.05;;;5.03;;
69323;SDS011;56470;47.350;8.718;2023-08-20T08:02:56;11.90;;;6.30;;
69323;SDS011;56470;47.350;8.718;2023-08-20T08:05:21;10.53;;;5.10;;
69323;SDS011;56470;47.350;8.718;2023-08-20T08:07:46;8.90;;;4.63;;
69323;SDS011;56470;47.350;8.718;2023-08-20T08:10:12;11.10;;;5.10;;
69323;SDS011;56470;47.350;8.718;2023-08-20T08:12:37;9.00;;;5.13;;
69323;SDS011;56470;47.350;8.718;2023-08-20T08:15:02;9.60;;;4.57;;
69323;SDS011;56470;47.350;8.718;2023-08-20T08:17:28;8.20;;;4.73;;
69323;SDS011;56470;47.350;8.718;2023-08-20T08:19:53;9.80;;;4.83;;
69323;SDS011;56470;47.350;8.718;2023-08-20T08:22:20;11.18;;;5.20;;
69323;SDS011;56470;47.350;8.718;2023-08-20T08:24:45;8.23;;;5.93;;
69323;SDS011;56470;47.350;8.718;2023-08-20T08:27:11;8.47;;;5.23;;
69323;SDS011;56470;47.350;8.718;2023-08-20T08:29:36;9.43;;;5.13;;
69323;SDS011;56470;47.350;8.718;2023-08-20T08:32:01;12.10;;;5.90;;
69323;SDS011;56470;47.350;8.718;2023-08-20T08:34:27;9.73;;;5.27;;
69323;SDS011;56470;47.350;8.718;2023-08-20T08:36:52;8.20;;;5.23;;
69323;SDS011;56470;47.350;8.718;2023-08-20T08:39:18;8.83;;;5.00;;
69323;SDS011;56470;47.350;8.718;2023-08-20T08:41:43;8.85;;;5.20;;
69323;SDS011;56470;47.350;8.718;2023-08-20T08:44:14;8.27;;;4.93;;
69323;SDS011;56470;47.350;8.718;2023-08-20T08:46:40;8.88;;;4.97;;
69323;SDS011;56470;47.350;8.718;2023-08-20T08:49:05;8.47;;;4.97;;
69323;SDS011;56470;47.350;8.718;2023-08-20T08:51:31;8.20;;;5.55;;
69323;SDS011;56470;47.350;8.718;2023-08-20T08:53:58;14.52;;;5.10;;
69323;SDS011;56470;47.350;8.718;2023-08-20T08:56:27;9.07;;;4.90;;
69323;SDS011;56470;47.350;8.718;2023-08-20T08:58:52;8.07;;;5.35;;
69323;SDS011;56470;47.350;8.718;2023-08-20T09:01:18;10.27;;;5.10;;
69323;SDS011;56470;47.350;8.718;2023-08-20T09:03:44;6.83;;;4.70;;
69323;SDS011;56470;47.350;8.718;2023-08-20T09:06:09;7.57;;;5.17;;
69323;SDS011;56470;47.350;8.718;2023-08-20T09:08:35;7.97;;;5.40;;
69323;SDS011;56470;47.350;8.718;2023-08-20T09:11:01;8.17;;;5.37;;
69323;SDS011;56470;47.350;8.718;2023-08-20T09:13:34;7.47;;;4.32;;
69323;SDS011;56470;47.350;8.718;2023-08-20T09:16:05;8.75;;;5.15;;
69323;SDS011;56470;47.350;8.718;2023-08-20T09:18:40;10.03;;;5.00;;
69323;SDS011;56470;47.350;8.718;2023-08-20T09:21:07;8.48;;;5.47;;
69323;SDS011;56470;47.350;8.718;2023-08-20T09:23:33;7.78;;;5.13;;
69323;SDS011;56470;47.350;8.718;2023-08-20T09:26:01;9.15;;;5.03;;
69323;SDS011;56470;47.350;8.718;2023-08-20T09:28:27;7.37;;;4.70;;
69323;SDS011;56470;47.350;8.718;2023-08-20T09:30:57;9.43;;;4.32;;
69323;SDS011;56470;47.350;8.718;2023-08-20T09:33:26;7.93;;;4.47;;
69323;SDS011;56470;47.350;8.718;2023-08-20T09:35:52;8.20;;;4.88;;
69323;SDS011;56470;47.350;8.718;2023-08-20T09:38:21;8.48;;;4.28;;
69323;SDS011;56470;47.350;8.718;2023-08-20T09:40:48;9.30;;;5.13;;
69323;SDS011;56470;47.350;8.718;2023-08-20T09:43:15;7.00;;;5.00;;
69323;SDS011;56470;47.350;8.718;2023-08-20T09:45:42;9.77;;;5.23;;
69323;SDS011;56470;47.350;8.718;2023-08-20T09:48:09;8.43;;;5.53;;
69323;SDS011;56470;47.350;8.718;2023-08-20T09:50:36;6.85;;;5.18;;
69323;SDS011;56470;47.350;8.718;2023-08-20T09:53:12;9.15;;;5.38;;
69323;SDS011;56470;47.350;8.718;2023-08-20T09:55:42;8.57;;;4.90;;
69323;SDS011;56470;47.350;8.718;2023-08-20T09:58:10;7.30;;;4.47;;
69323;SDS011;56470;47.350;8.718;2023-08-20T10:00:35;13.20;;;5.68;;
69323;SDS011;56470;47.350;8.718;2023-08-20T10:03:01;10.95;;;5.53;;
69323;SDS011;56470;47.350;8.718;2023-08-20T10:05:27;8.53;;;5.20;;
69323;SDS011;56470;47.350;8.718;2023-08-20T10:07:54;9.38;;;5.47;;
69323;SDS011;56470;47.350;8.718;2023-08-20T10:10:20;9.35;;;5.15;;
69323;SDS011;56470;47.350;8.718;2023-08-20T10:12:46;8.83;;;5.40;;
69323;SDS011;56470;47.350;8.718;2023-08-20T10:15:12;10.52;;;5.65;;
69323;SDS011;56470;47.350;8.718;2023-08-20T10:17:39;10.00;;;5.50;;
69323;SDS011;56470;47.350;8.718;2023-08-20T10:20:07;12.25;;;5.82;;
69323;SDS011;56470;47.350;8.718;2023-08-20T10:22:35;10.43;;;5.35;;
69323;SDS011;56470;47.350;8.718;2023-08-20T10:25:07;12.30;;;6.18;;
69323;SDS011;56470;47.350;8.718;2023-08-20T10:27:38;8.75;;;5.97;;
69323;SDS011;56470;47.350;8.718;2023-08-20T10:30:18;11.87;;;5.70;;
69323;SDS011;56470;47.350;8.718;2023-08-20T10:32:50;9.13;;;6.32;;
69323;SDS011;56470;47.350;8.718;2023-08-20T10:38:05;8.15;;;5.78;;
69323;SDS011;56470;47.350;8.718;2023-08-20T10:43:38;11.57;;;5.70;;
69323;SDS011;56470;47.350;8.718;2023-08-20T10:46:18;10.82;;;6.90;;
69323;SDS011;56470;47.350;8.718;2023-08-20T10:48:51;12.18;;;6.88;;
69323;SDS011;56470;47.350;8.718;2023-08-20T10:51:18;9.73;;;5.75;;
69323;SDS011;56470;47.350;8.718;2023-08-20T10:54:10;9.90;;;6.60;;
69323;SDS011;56470;47.350;8.718;2023-08-20T10:56:45;9.93;;;6.23;;
69323;SDS011;56470;47.350;8.718;2023-08-20T10:59:15;8.20;;;6.20;;
69323;SDS011;56470;47.350;8.718;2023-08-20T11:01:46;8.57;;;6.95;;
69323;SDS011;56470;47.350;8.718;2023-08-20T11:04:13;11.27;;;6.10;;
69323;SDS011;56470;47.350;8.718;2023-08-20T11:06:40;10.23;;;5.88;;
69323;SDS011;56470;47.350;8.718;2023-08-20T11:09:06;9.57;;;5.90;;
69323;SDS011;56470;47.350;8.718;2023-08-20T11:11:31;9.05;;;6.03;;
69323;SDS011;56470;47.350;8.718;2023-08-20T11:14:03;13.27;;;5.80;;
69323;SDS011;56470;47.350;8.718;2023-08-20T11:16:31;10.90;;;6.40;;
69323;SDS011;56470;47.350;8.718;2023-08-20T11:18:59;10.63;;;6.05;;
69323;SDS011;56470;47.350;8.718;2023-08-20T11:21:37;11.50;;;5.25;;
69323;SDS011;56470;47.350;8.718;2023-08-20T11:24:04;7.73;;;5.70;;
69323;SDS011;56470;47.350;8.718;2023-08-20T11:26:44;10.35;;;5.85;;
69323;SDS011;56470;47.350;8.718;2023-08-20T11:29:13;9.30;;;5.15;;
69323;SDS011;56470;47.350;8.718;2023-08-20T11:31:53;8.65;;;5.85;;
69323;SDS011;56470;47.350;8.718;2023-08-20T11:34:29;12.05;;;5.78;;
69323;SDS011;56470;47.350;8.718;2023-08-20T11:37:00;7.90;;;5.80;;
69323;SDS011;56470;47.350;8.718;2023-08-20T11:39:27;9.88;;;5.18;;
69323;SDS011;56470;47.350;8.718;2023-08-20T11:42:17;9.73;;;5.77;;
69323;SDS011;56470;47.350;8.718;2023-08-20T11:45:09;12.38;;;6.15;;
69323;SDS011;56470;47.350;8.718;2023-08-20T11:48:01;9.50;;;5.75;;
69323;SDS011;56470;47.350;8.718;2023-08-20T11:50:41;10.00;;;6.03;;
69323;SDS011;56470;47.350;8.718;2023-08-20T11:53:20;11.00;;;6.28;;
69323;SDS011;56470;47.350;8.718;2023-08-20T11:55:48;10.43;;;6.03;;
69323;SDS011;56470;47.350;8.718;2023-08-20T11:58:19;10.23;;;5.85;;
69323;SDS011;56470;47.350;8.718;2023-08-20T12:00:47;9.30;;;5.25;;
69323;SDS011;56470;47.350;8.718;2023-08-20T12:03:14;9.07;;;5.75;;
69323;SDS011;56470;47.350;8.718;2023-08-20T12:05:42;9.23;;;6.57;;
69323;SDS011;56470;47.350;8.718;2023-08-20T12:08:08;8.87;;;5.33;;
69323;SDS011;56470;47.350;8.718;2023-08-20T12:10:33;13.50;;;6.23;;
69323;SDS011;56470;47.350;8.718;2023-08-20T12:13:08;11.32;;;5.30;;
69323;SDS011;56470;47.350;8.718;2023-08-20T12:15:33;9.07;;;5.78;;
69323;SDS011;56470;47.350;8.718;2023-08-20T12:18:02;8.60;;;5.40;;
69323;SDS011;56470;47.350;8.718;2023-08-20T12:20:34;11.23;;;5.90;;
69323;SDS011;56470;47.350;8.718;2023-08-20T12:23:01;8.85;;;6.00;;
69323;SDS011;56470;47.350;8.718;2023-08-20T12:25:32;10.13;;;5.75;;
69323;SDS011;56470;47.350;8.718;2023-08-20T12:28:00;9.10;;;5.63;;
69323;SDS011;56470;47.350;8.718;2023-08-20T12:30:26;10.33;;;5.30;;
69323;SDS011;56470;47.350;8.718;2023-08-20T12:32:51;8.18;;;4.80;;
69323;SDS011;56470;47.350;8.718;2023-08-20T12:35:17;10.40;;;5.23;;
69323;SDS011;56470;47.350;8.718;2023-08-20T12:37:42;7.80;;;4.95;;
69323;SDS011;56470;47.350;8.718;2023-08-20T12:40:08;9.80;;;5.50;;
69323;SDS011;56470;47.350;8.718;2023-08-20T12:42:36;8.60;;;5.03;;
69323;SDS011;56470;47.350;8.718;2023-08-20T12:45:04;9.20;;;4.90;;
69323;SDS011;56470;47.350;8.718;2023-08-20T12:47:33;12.27;;;4.87;;
69323;SDS011;56470;47.350;8.718;2023-08-20T12:49:59;7.45;;;4.35;;
69323;SDS011;56470;47.350;8.718;2023-08-20T12:52:24;11.00;;;4.73;;
69323;SDS011;56470;47.350;8.718;2023-08-20T12:54:50;10.00;;;4.28;;
69323;SDS011;56470;47.350;8.718;2023-08-20T12:57:15;8.97;;;3.80;;
69323;SDS011;56470;47.350;8.718;2023-08-20T12:59:41;9.47;;;4.73;;
69323;SDS011;56470;47.350;8.718;2023-08-20T13:02:08;7.23;;;4.10;;
69323;SDS011;56470;47.350;8.718;2023-08-20T13:04:38;7.77;;;4.77;;
69323;SDS011;56470;47.350;8.718;2023-08-20T13:07:03;7.40;;;4.00;;
69323;SDS011;56470;47.350;8.718;2023-08-20T13:09:35;11.05;;;4.28;;
69323;SDS011;56470;47.350;8.718;2023-08-20T13:12:06;6.35;;;3.55;;
69323;SDS011;56470;47.350;8.718;2023-08-20T13:14:42;9.17;;;4.90;;
69323;SDS011;56470;47.350;8.718;2023-08-20T13:17:07;9.13;;;4.65;;
69323;SDS011;56470;47.350;8.718;2023-08-20T13:19:36;11.50;;;4.70;;
69323;SDS011;56470;47.350;8.718;2023-08-20T13:22:02;7.47;;;5.15;;
69323;SDS011;56470;47.350;8.718;2023-08-20T13:24:30;9.80;;;3.97;;
69323;SDS011;56470;47.350;8.718;2023-08-20T13:27:00;9.45;;;5.15;;
69323;SDS011;56470;47.350;8.718;2023-08-20T13:29:28;7.90;;;4.30;;
69323;SDS011;56470;47.350;8.718;2023-08-20T13:32:04;8.15;;;4.28;;
69323;SDS011;56470;47.350;8.718;2023-08-20T13:34:30;9.38;;;4.07;;
69323;SDS011;56470;47.350;8.718;2023-08-20T13:37:06;8.48;;;4.93;;
69323;SDS011;56470;47.350;8.718;2023-08-20T13:39:32;7.13;;;4.63;;
69323;SDS011;56470;47.350;8.718;2023-08-20T13:42:00;8.20;;;4.53;;
69323;SDS011;56470;47.350;8.718;2023-08-20T13:44:25;11.05;;;4.45;;
69323;SDS011;56470;47.350;8.718;2023-08-20T13:46:54;8.23;;;4.10;;
69323;SDS011;56470;47.350;8.718;2023-08-20T13:49:20;8.23;;;4.10;;
69323;SDS011;56470;47.350;8.718;2023-08-20T13:51:45;6.30;;;4.10;;
69323;SDS011;56470;47.350;8.718;2023-08-20T13:54:11;11.15;;;4.68;;
69323;SDS011;56470;47.350;8.718;2023-08-20T13:56:36;6.93;;;4.43;;
69323;SDS011;56470;47.350;8.718;2023-08-20T13:59:02;8.97;;;5.13;;
69323;SDS011;56470;47.350;8.718;2023-08-20T14:01:27;7.82;;;4.10;;
69323;SDS011;56470;47.350;8.718;2023-08-20T14:03:55;6.73;;;3.90;;
69323;SDS011;56470;47.350;8.718;2023-08-20T14:06:20;7.43;;;4.93;;
69323;SDS011;56470;47.350;8.718;2023-08-20T14:08:46;7.73;;;4.70;;
69323;SDS011;56470;47.350;8.718;2023-08-20T14:11:11;8.93;;;4.67;;
69323;SDS011;56470;47.350;8.718;2023-08-20T14:13:39;9.75;;;4.75;;
69323;SDS011;56470;47.350;8.718;2023-08-20T14:16:07;8.50;;;4.03;;
69323;SDS011;56470;47.350;8.718;2023-08-20T14:18:33;7.80;;;4.10;;
69323;SDS011;56470;47.350;8.718;2023-08-20T14:21:01;10.13;;;5.20;;
69323;SDS011;56470;47.350;8.718;2023-08-20T14:23:29;8.48;;;4.38;;
69323;SDS011;56470;47.350;8.718;2023-08-20T14:25:54;7.63;;;4.63;;
69323;SDS011;56470;47.350;8.718;2023-08-20T14:28:23;8.52;;;4.60;;
69323;SDS011;56470;47.350;8.718;2023-08-20T14:30:51;6.57;;;3.60;;
69323;SDS011;56470;47.350;8.718;2023-08-20T14:33:19;8.27;;;4.15;;
69323;SDS011;56470;47.350;8.718;2023-08-20T14:35:51;7.18;;;4.22;;
69323;SDS011;56470;47.350;8.718;2023-08-20T14:38:33;6.82;;;3.97;;
69323;SDS011;56470;47.350;8.718;2023-08-20T14:41:05;9.80;;;3.70;;
69323;SDS011;56470;47.350;8.718;2023-08-20T14:43:33;7.72;;;3.65;;
69323;SDS011;56470;47.350;8.718;2023-08-20T14:46:02;8.63;;;4.60;;
69323;SDS011;56470;47.350;8.718;2023-08-20T14:48:44;8.37;;;4.67;;
69323;SDS011;56470;47.350;8.718;2023-08-20T14:51:23;8.98;;;4.00;;
69323;SDS011;56470;47.350;8.718;2023-08-20T14:54:01;6.93;;;3.72;;
69323;SDS011;56470;47.350;8.718;2023-08-20T14:56:31;10.98;;;4.60;;
69323;SDS011;56470;47.350;8.718;2023-08-20T14:59:05;10.73;;;3.80;;